createdAt,value
2022-09-23T00:01:01.695Z,21.00
2022-09-23T00:06:16.348Z,21.10
2022-09-23T00:11:25.079Z,20.00
2022-09-23T00:16:32.774Z,22.40
2022-09-23T00:21:36.217Z,18.90
2022-09-23T00:26:38.985Z,23.40
2022-09-23T00:31:42.357Z,23.80
2022-09-23T00:36:45.260Z,18.90
2022-09-23T00:41:48.036Z,20.10
2022-09-23T00:46:50.875Z,17.70
2022-09-23T00:51:59.058Z,21.10
2022-09-23T00:57:05.423Z,19.90
2022-09-23T01:02:10.027Z,23.60
2022-09-23T01:07:13.807Z,18.00
2022-09-23T01:12:29.448Z,17.10
2022-09-23T01:17:44.509Z,20.80
2022-09-23T01:23:24.918Z,17.90
2022-09-23T01:29:20.580Z,20.10
2022-09-23T01:34:51.196Z,15.80
2022-09-23T01:40:21.507Z,14.10
2022-09-23T01:45:27.401Z,20.40
2022-09-23T01:50:56.474Z,19.30
2022-09-23T01:56:05.414Z,17.90
2022-09-23T02:01:11.597Z,17.60
2022-09-23T02:06:21.035Z,17.60
2022-09-23T02:11:24.779Z,15.20
2022-09-23T02:16:45.258Z,19.30
2022-09-23T02:21:55.559Z,21.70
2022-09-23T02:27:31.421Z,17.60
2022-09-23T02:32:54.811Z,19.70
2022-09-23T02:38:19.298Z,22.90
2022-09-23T02:43:35.619Z,21.10
2022-09-23T02:48:47.308Z,22.50
2022-09-23T02:53:50.137Z,22.30
2022-09-23T02:58:54.730Z,18.60
2022-09-23T03:04:31.707Z,20.20
2022-09-23T03:09:53.325Z,24.60
2022-09-23T03:15:05.838Z,20.50
2022-09-23T03:20:15.489Z,20.10
2022-09-23T03:25:22.427Z,22.10
2022-09-23T03:30:26.579Z,25.40
2022-09-23T03:35:33.717Z,24.70
2022-09-23T03:40:45.905Z,25.40
2022-09-23T03:45:49.136Z,20.30
2022-09-23T03:50:53.165Z,23.20
2022-09-23T03:55:57.277Z,24.70
2022-09-23T04:01:00.733Z,24.60
2022-09-23T04:06:03.865Z,25.00
2022-09-23T04:11:06.896Z,22.40
2022-09-23T04:16:09.845Z,26.00
2022-09-23T04:21:12.806Z,23.30
2022-09-23T04:26:15.596Z,26.90
2022-09-23T04:31:18.446Z,25.10
2022-09-23T04:36:22.039Z,27.20
2022-09-23T04:41:24.917Z,27.20
2022-09-23T04:46:28.325Z,26.20
2022-09-23T04:51:31.260Z,29.90
2022-09-23T04:56:34.074Z,25.90
2022-09-23T05:01:38.431Z,36.20
2022-09-23T05:06:45.229Z,30.70
2022-09-23T05:11:48.303Z,24.50
2022-09-23T05:16:51.249Z,27.20
2022-09-23T05:21:54.019Z,26.20
2022-09-23T05:26:56.852Z,27.50
2022-09-23T05:32:00.183Z,31.10
2022-09-23T05:37:05.088Z,28.10
2022-09-23T05:42:10.477Z,29.60
2022-09-23T05:47:16.956Z,28.80
2022-09-23T05:52:20.762Z,30.20
2022-09-23T05:57:24.052Z,28.10
2022-09-23T06:02:26.896Z,28.20
2022-09-23T06:07:31.281Z,29.30
2022-09-23T06:12:35.372Z,26.20
2022-09-23T06:17:38.235Z,25.90
2022-09-23T06:22:41.026Z,26.60
2022-09-23T06:27:44.310Z,27.20
2022-09-23T06:32:53.504Z,29.80
2022-09-23T06:37:56.439Z,23.20
2022-09-23T06:43:00.720Z,24.50
2022-09-23T06:48:05.002Z,30.50
2022-09-23T06:53:07.979Z,25.70
2022-09-23T06:58:11.038Z,23.70
2022-09-23T07:03:13.849Z,26.30
2022-09-23T07:08:16.657Z,24.00
2022-09-23T07:13:19.809Z,25.00
2022-09-23T07:18:26.090Z,21.10
2022-09-23T07:23:28.875Z,24.00
2022-09-23T07:28:32.298Z,18.10
2022-09-23T07:33:37.058Z,18.30
2022-09-23T07:38:45.242Z,15.50
2022-09-23T07:43:49.071Z,21.60
2022-09-23T07:48:53.262Z,18.30
2022-09-23T07:53:56.768Z,21.10
2022-09-23T07:59:04.343Z,17.30
2022-09-23T08:04:15.946Z,14.40
2022-09-23T08:09:23.766Z,19.90
2022-09-23T08:14:27.071Z,18.70
2022-09-23T08:19:29.894Z,18.20
2022-09-23T08:24:32.722Z,21.00
2022-09-23T08:29:35.715Z,20.90
2022-09-23T08:34:38.673Z,19.30
2022-09-23T08:39:41.632Z,16.00
2022-09-23T08:44:55.347Z,16.60
2022-09-23T08:50:18.120Z,13.60
2022-09-23T08:55:29.796Z,13.70
2022-09-23T09:00:46.300Z,10.00
2022-09-23T09:05:54.348Z,7.10
2022-09-23T09:10:58.532Z,8.10
2022-09-23T09:16:36.533Z,7.80
2022-09-23T09:21:47.982Z,13.10
2022-09-23T09:26:50.972Z,21.30
2022-09-23T09:31:53.906Z,15.20
2022-09-23T09:37:31.854Z,11.10
2022-09-23T09:42:40.981Z,9.60
2022-09-23T09:47:53.908Z,12.30
2022-09-23T09:53:25.659Z,9.90
2022-09-23T09:58:35.449Z,5.30
2022-09-23T10:03:44.042Z,7.60
2022-09-23T10:09:10.670Z,6.30
2022-09-23T10:14:17.853Z,5.40
2022-09-23T10:19:29.349Z,6.30
2022-09-23T10:24:36.446Z,5.60
2022-09-23T10:29:48.200Z,2.90
2022-09-23T10:35:13.518Z,2.80
2022-09-23T10:40:36.904Z,4.20
2022-09-23T10:46:04.163Z,3.00
2022-09-23T10:51:29.841Z,2.90
2022-09-23T10:56:41.790Z,2.40
2022-09-23T11:02:12.337Z,3.10
2022-09-23T11:07:41.446Z,2.40
2022-09-23T11:12:55.734Z,3.00
2022-09-23T11:18:10.811Z,2.80
2022-09-23T11:23:32.602Z,2.80
2022-09-23T11:28:46.866Z,1.30
2022-09-23T11:33:58.659Z,3.10
2022-09-23T11:39:07.935Z,1.80
2022-09-23T11:44:26.329Z,1.70
2022-09-23T11:49:57.939Z,1.60
2022-09-23T11:55:11.074Z,3.20
2022-09-23T12:00:26.834Z,5.80
2022-09-23T12:05:45.941Z,3.00
2022-09-23T12:11:22.202Z,2.00
2022-09-23T12:16:43.803Z,3.00
2022-09-23T12:22:05.856Z,2.10
2022-09-23T12:27:21.626Z,1.90
2022-09-23T12:32:25.242Z,1.70
2022-09-23T12:37:34.207Z,2.30
2022-09-23T12:42:44.730Z,2.00
2022-09-23T12:47:48.627Z,2.10
2022-09-23T12:52:51.504Z,2.30
2022-09-23T12:57:54.332Z,2.80
2022-09-23T13:03:18.994Z,2.50
2022-09-23T13:08:25.075Z,7.40
2022-09-23T13:13:41.749Z,3.60
2022-09-23T13:19:05.566Z,2.10
2022-09-23T13:24:14.491Z,3.20
2022-09-23T13:29:24.215Z,3.70
2022-09-23T13:34:33.553Z,3.30
2022-09-23T13:39:36.706Z,2.00
2022-09-23T13:44:40.920Z,1.60
2022-09-23T13:49:43.965Z,4.20
2022-09-23T13:54:49.915Z,3.20
2022-09-23T13:59:53.174Z,5.30
2022-09-23T14:04:58.553Z,2.60
2022-09-23T14:15:14.221Z,2.30
2022-09-23T14:20:20.284Z,2.00
2022-09-23T14:25:23.294Z,2.80
2022-09-23T14:30:26.590Z,3.00
2022-09-23T14:35:42.306Z,3.50
2022-09-23T14:40:54.769Z,7.20
2022-09-23T14:45:59.320Z,3.40
2022-09-23T14:51:06.815Z,6.10
2022-09-23T14:56:20.461Z,2.90
2022-09-23T15:01:31.092Z,2.70
2022-09-23T15:06:37.305Z,4.50
2022-09-23T15:11:40.870Z,3.20
2022-09-23T15:16:43.968Z,36.20
2022-09-23T15:21:53.017Z,9.20
2022-09-23T15:26:58.133Z,7.40
2022-09-23T15:32:01.320Z,4.60
2022-09-23T15:37:04.467Z,6.50
2022-09-23T15:42:10.295Z,5.40
2022-09-23T15:47:18.689Z,4.90
2022-09-23T15:52:22.917Z,5.90
2022-09-23T15:57:26.139Z,9.00
2022-09-23T16:02:29.660Z,4.60
2022-09-23T16:07:32.747Z,6.50
2022-09-23T16:12:37.026Z,9.70
2022-09-23T16:17:39.885Z,11.00
2022-09-23T16:22:42.863Z,11.90
2022-09-23T16:27:45.744Z,15.60
2022-09-23T16:32:48.571Z,9.90
2022-09-23T16:37:52.907Z,11.30
2022-09-23T16:42:58.425Z,15.30
2022-09-23T16:53:04.713Z,12.10
2022-09-23T16:58:07.950Z,11.10
2022-09-23T17:03:31.390Z,11.80
2022-09-23T17:08:34.577Z,15.60
2022-09-23T17:13:42.447Z,17.70
2022-09-23T17:18:45.547Z,10.40
2022-09-23T17:23:48.572Z,6.60
2022-09-23T17:28:54.428Z,11.70
2022-09-23T17:33:57.497Z,10.80
2022-09-23T17:39:00.410Z,10.00
2022-09-23T17:44:04.816Z,9.40
2022-09-23T17:49:08.572Z,11.40
2022-09-23T17:54:12.215Z,15.60
2022-09-23T17:59:15.102Z,15.40
2022-09-23T18:04:18.374Z,11.30
2022-09-23T18:09:21.427Z,15.60
2022-09-23T18:14:24.352Z,14.20
2022-09-23T18:19:27.890Z,10.90
2022-09-23T18:24:33.587Z,13.30
2022-09-23T18:29:38.731Z,14.00
2022-09-23T18:34:41.725Z,12.50
2022-09-23T18:39:44.831Z,12.40
2022-09-23T18:44:50.024Z,12.60
2022-09-23T18:50:11.819Z,17.10
2022-09-23T18:55:15.263Z,13.60
2022-09-23T19:00:18.335Z,20.30
2022-09-23T19:05:21.315Z,29.10
2022-09-23T19:10:24.491Z,25.90
2022-09-23T19:15:27.705Z,18.40
2022-09-23T19:20:30.771Z,23.30
2022-09-23T19:25:36.417Z,19.10
2022-09-23T19:30:40.041Z,22.40
2022-09-23T19:35:51.477Z,20.00
2022-09-23T19:40:55.410Z,17.00
2022-09-23T19:45:58.281Z,20.90
2022-09-23T19:51:03.149Z,20.80
2022-09-23T19:56:06.495Z,20.20
2022-09-23T20:01:11.987Z,19.40
2022-09-23T20:06:16.611Z,19.30
2022-09-23T20:11:27.598Z,19.40
2022-09-23T20:16:34.358Z,18.00
2022-09-23T20:21:37.644Z,18.90
2022-09-23T20:26:59.169Z,22.60
2022-09-23T20:32:02.972Z,23.10
2022-09-23T20:37:06.220Z,21.40
2022-09-23T20:42:09.348Z,21.00
2022-09-23T20:47:14.178Z,20.80
2022-09-23T20:52:20.337Z,18.30
2022-09-23T20:57:23.210Z,19.30
2022-09-23T21:02:27.539Z,20.40
2022-09-23T21:07:32.119Z,21.10
2022-09-23T21:12:35.380Z,21.10
2022-09-23T21:17:38.216Z,23.90
2022-09-23T21:22:41.176Z,21.10
2022-09-23T21:27:45.110Z,23.70
2022-09-23T21:32:48.098Z,20.30
2022-09-23T21:37:50.976Z,23.40
2022-09-23T21:42:59.070Z,23.60
2022-09-23T21:48:02.482Z,23.20
2022-09-23T21:53:06.830Z,24.30
2022-09-23T21:58:09.681Z,24.40
2022-09-23T22:03:12.586Z,25.50
2022-09-23T22:08:15.358Z,26.00
2022-09-23T22:13:18.275Z,22.00
2022-09-23T22:18:21.078Z,20.60
2022-09-23T22:23:24.242Z,20.30
2022-09-23T22:28:45.421Z,21.70
2022-09-23T22:33:50.135Z,22.10
2022-09-23T22:38:59.207Z,20.80
2022-09-23T22:44:03.437Z,21.60
2022-09-23T22:49:07.565Z,21.80
2022-09-23T22:54:11.261Z,23.60
2022-09-23T22:59:14.408Z,26.70
2022-09-23T23:04:17.645Z,24.70
2022-09-23T23:09:20.723Z,23.30
2022-09-23T23:14:23.719Z,22.00
2022-09-23T23:19:26.538Z,21.00
2022-09-23T23:24:29.568Z,20.70
2022-09-23T23:29:32.457Z,23.10
2022-09-23T23:34:35.333Z,21.50
2022-09-23T23:39:38.157Z,18.90
2022-09-23T23:44:41.091Z,17.90
2022-09-23T23:49:43.988Z,20.70
2022-09-23T23:54:46.960Z,20.80
2022-09-23T23:59:49.797Z,21.00
